Date,TemperatureHighF,TemperatureAvgF,TemperatureLowF,DewpointHighF,DewpointAvgF,DewpointLowF,HumidityHigh,HumidityAvg,HumidityLow,PressureMaxIn,PressureMinIn,WindSpeedMaxMPH,WindSpeedAvgMPH,GustSpeedMaxMPH,PrecipitationSumIn
2013-5-1,81.4,69.2,56.2,61.0,54.4,51.0,82,61,40,30.23,30.09,4,1,11,0.00
2013-5-2,79.3,68.8,57.1,54.0,44.9,38.0,65,44,30,30.28,30.13,5,1,8,0.00
2013-5-3,78.2,68.4,57.2,48.0,42.1,37.0,59,40,25,30.17,30.05,5,1,10,0.00
2013-5-4,74.3,64.8,54.8,45.0,40.8,36.0,57,43,26,30.14,30.03,13,2,15,0.00
2013-5-5,74.9,64.6,54.8,44.0,38.5,28.0,63,41,19,30.08,29.97,10,1,17,0.00
2013-5-6,75.3,64.9,52.4,53.0,44.4,28.0,68,48,29,30.04,29.94,5,1,11,0.00
2013-5-7,74.2,65.4,58.1,59.0,54.1,51.0,81,68,52,30.01,29.94,5,1,10,0.00
2013-5-8,72.9,64.4,55.2,57.0,54.3,51.0,92,71,51,29.98,29.92,5,1,16,0.02
2013-5-9,79.0,67.1,56.5,58.0,49.9,36.0,95,61,23,29.97,29.91,8,1,9,0.01
2013-5-10,73.6,64.7,52.5,66.0,58.5,43.0,95,82,44,29.92,29.74,7,1,14,1.22
2013-5-11,55.8,49.7,45.4,51.0,47.0,44.0,95,91,79,29.89,29.79,5,1,13,0.04
2013-5-12,50.5,44.5,38.0,43.0,34.1,29.0,90,68,46,30.09,29.90,12,2,19,0.00
2013-5-13,50.9,44.0,36.5,32.0,29.6,24.0,81,59,35,30.20,30.08,7,2,14,0.00
2013-5-14,69.0,54.0,37.5,47.0,38.5,30.0,78,58,40,30.17,29.79,5,0,10,0.00
2013-5-15,85.5,70.7,57.5,63.0,53.8,44.0,82,58,30,29.82,29.67,16,2,21,0.00
2013-5-16,80.5,69.0,55.2,55.0,49.1,40.0,84,53,24,29.95,29.74,6,1,14,0.00
2013-5-17,76.0,64.2,52.9,54.0,47.2,42.0,78,56,37,30.11,29.94,9,1,14,0.00
2013-5-18,80.9,68.5,56.7,59.0,51.5,42.0,68,56,30,30.12,30.00,7,1,12,0.00
2013-5-19,83.4,73.6,63.8,68.0,62.6,54.0,88,70,54,30.03,29.90,5,0,7,0.00
2013-5-20,84.8,75.6,64.7,73.0,67.7,62.0,94,77,65,29.95,29.83,3,0,8,0.00
2013-5-21,86.8,78.0,71.2,70.0,66.3,61.0,90,69,46,29.86,29.73,3,0,11,0.00
2013-5-22,85.6,75.9,66.5,67.0,63.6,61.0,93,67,48,29.79,29.65,10,1,14,0.84
2013-5-23,73.3,59.6,42.9,64.0,56.1,41.0,95,89,67,30.05,29.70,8,1,15,0.17
2013-5-24,46.9,43.5,38.7,42.0,37.1,34.0,94,79,64,30.35,30.05,10,2,18,0.05
2013-5-25,59.8,48.2,34.2,42.0,36.2,32.0,96,67,41,30.39,30.29,6,1,15,0.00
2013-5-26,63.9,52.0,36.1,44.0,36.7,32.0,95,61,32,30.35,30.24,7,1,13,0.00
2013-5-27,59.1,52.5,40.7,53.0,45.4,37.0,93,78,52,30.27,30.04,3,0,7,0.14
2013-5-28,82.7,67.9,53.6,71.0,61.4,52.0,97,81,58,30.04,29.88,6,0,11,0.28
2013-5-29,87.0,76.3,66.8,72.0,64.8,61.0,90,69,48,30.01,29.89,8,1,17,0.07
2013-5-30,87.9,77.1,66.1,71.0,65.0,61.0,90,68,43,30.11,29.99,3,0,8,0.00
2013-5-31,87.0,75.5,67.7,72.0,66.1,61.0,95,74,54,30.02,29.90,12,1,16,0.96